ADDS METAR Data INFO
IDs: Format: Raw Decoded Include TAF

Data at: 1332 UTC 23 Jun 2018

KRHP 231315Z AUTO 09003KT 10SM BKN018 BKN022 22/20 A2996 RMK AO2 T02170199
KRHP 231255Z AUTO 00000KT 10SM BKN014 OVC024 21/21 A2996 RMK AO2 T02100207
KRHP 231235Z AUTO 00000KT 10SM BKN011 OVC020 21/21 A2996 RMK AO2 T02100207
KRHP 231215Z AUTO 00000KT 10SM OVC011 21/21 A2996 RMK AO2 T02050205
KRHP 231155Z AUTO 00000KT 7SM OVC009 20/20 A2995 RMK AO2 70017 T02020202 10202 20194
KRHP 231135Z AUTO 00000KT 7SM OVC009 20/20 A2994 RMK AO2 T01950195
KRHP 231115Z AUTO 00000KT 10SM OVC009 20/20 A2994 RMK AO2 T01950195
KRHP 231055Z AUTO 00000KT 10SM BKN009 OVC014 20/20 A2993 RMK AO2 T01950195
KRHP 231035Z AUTO 00000KT 10SM OVC012 20/20 A2993 RMK AO2 T01970197
KRHP 231015Z AUTO 00000KT 10SM OVC010 20/20 A2991 RMK AO2 T02000200
KRHP 230955Z AUTO 00000KT 10SM SCT005 OVC012 20/20 A2990 RMK AO2 T02000200
KRHP 230935Z AUTO 00000KT 10SM BKN007 OVC016 20/20 A2989 RMK AO2 T02000200
KRHP 230915Z AUTO 00000KT 10SM BKN007 OVC020 20/20 A2988 RMK AO2 T01990199
KRHP 230855Z AUTO 00000KT 10SM BKN007 OVC023 20/20 A2988 RMK AO2 T01970197
KRHP 230835Z AUTO 00000KT 7SM SCT003 BKN007 OVC023 20/20 A2988 RMK AO2 T01980198
KRHP 230815Z AUTO 00000KT 7SM BKN007 OVC024 20/20 A2988 RMK AO2 T01980198
KRHP 230755Z AUTO 00000KT 10SM SCT009 BKN022 OVC060 20/20 A2988 RMK AO2 T01980198
KRHP 230735Z AUTO 00000KT 10SM BKN020 BKN030 OVC065 20/20 A2988 RMK AO2 T01980198
KRHP 230715Z AUTO 00000KT 10SM SCT005 SCT009 OVC021 20/20 A2988 RMK AO2 T01990199
KRHP 230655Z AUTO 00000KT 10SM BKN007 OVC025 20/20 A2988 RMK AO2 T01990199
KRHP 230635Z AUTO 00000KT 10SM BKN007 OVC023 20/20 A2988 RMK AO2 T02000200
KRHP 230615Z AUTO 00000KT 10SM SCT005 OVC023 20/20 A2988 RMK AO2 T01990199
KRHP 230555Z AUTO 00000KT 10SM BKN005 BKN019 OVC025 20/20 A2988 RMK AO2 T02000200 10205 20198 402920195
KRHP 230535Z AUTO 00000KT 10SM OVC005 20/20 A2989 RMK AO2 T01990199
KRHP 230515Z AUTO 00000KT 10SM OVC005 20/20 A2989 RMK AO2 T01990199
KRHP 230455Z AUTO 00000KT 10SM BKN005 BKN021 OVC027 20/20 A2988 RMK AO2 T01990199
KRHP 230435Z AUTO 00000KT 10SM SCT005 OVC023 20/20 A2988 RMK AO2 T01980198
KRHP 230415Z AUTO 00000KT 10SM OVC023 20/20 A2988 RMK AO2 T02000200
KRHP 230355Z AUTO 00000KT 10SM OVC025 20/20 A2988 RMK AO2 T01990199
KRHP 230335Z AUTO 00000KT 10SM SCT005 BKN025 OVC030 20/20 A2988 RMK AO2 T02000200
KRHP 230315Z AUTO 00000KT 10SM SCT005 OVC025 20/20 A2989 RMK AO2 T02000200
KRHP 230255Z AUTO 00000KT 10SM SCT003 BKN027 OVC033 20/20 A2989 RMK AO2 T02000200
KRHP 230235Z AUTO 00000KT 10SM SCT007 OVC031 20/20 A2989 RMK AO2 T02000200
KRHP 230215Z AUTO 00000KT 10SM SCT005 BKN033 OVC039 20/20 A2989 RMK AO2 T02000200
KRHP 230155Z AUTO 00000KT 10SM SCT029 BKN035 OVC060 20/20 A2989 RMK AO2 T02000200
KRHP 230135Z AUTO 00000KT 10SM BKN030 OVC040 20/20 A2989 RMK AO2 T02000200
KRHP 230115Z AUTO 00000KT 10SM SCT005 BKN028 OVC040 20/20 A2989 RMK AO2 T02020202
KRHP 230055Z AUTO 00000KT 10SM SCT005 SCT015 OVC048 20/20 A2989 RMK AO2 T02020202
KRHP 230035Z AUTO 00000KT 10SM SCT014 BKN029 OVC050 20/20 A2989 RMK AO2 T02040204
KRHP 230015Z AUTO 00000KT 10SM BKN012 BKN020 OVC050 21/21 A2989 RMK AO2 T02050205
KRHP 222355Z AUTO 00000KT 10SM SCT005 SCT012 OVC022 20/20 A2989 RMK AO2 60017 T02040204 10292 20201
KRHP 222335Z AUTO 00000KT 10SM SCT007 SCT012 OVC024 21/21 A2989 RMK AO2 T02050205
KRHP 222315Z AUTO 00000KT 10SM SCT012 SCT018 OVC029 21/21 A2990 RMK AO2 T02050205
KRHP 222255Z AUTO 00000KT 10SM SCT016 SCT022 OVC031 20/20 A2989 RMK AO2 P0015 T02040203
KRHP 222235Z AUTO 00000KT 7SM -RA BKN018 BKN033 OVC050 20/20 A2991 RMK AO2 P0015 T02040204
KRHP 222215Z AUTO 21008KT 170V250 5SM +RA SCT025 BKN050 OVC100 21/20 A2991 RMK AO2 P0007 T02130201
KRHP 222155Z AUTO 27005KT 7SM RA SCT065 OVC100 23/21 A2988 RMK AO2 P0001 T02310206
KRHP 222135Z AUTO 28003KT 10SM BKN100 25/19 A2986 RMK AO2 T02500193
KRHP 222115Z AUTO 00000KT 10SM SCT095 26/19 A2985 RMK AO2 T02620188
KRHP 222055Z AUTO 24007KT 10SM SCT060 SCT070 SCT090 27/18 A2984 RMK AO2 T02710184
KRHP 222035Z AUTO 22005KT 10SM SCT050 BKN090 OVC110 27/18 A2985 RMK AO2 T02670183
KRHP 222015Z AUTO 21007KT 10SM BKN050 BKN075 27/19 A2985 RMK AO2 T02720185
KRHP 221955Z AUTO 24006KT 10SM SCT060 SCT075 28/18 A2986 RMK AO2 T02840184
KRHP 221935Z AUTO 24004KT 7SM SCT048 BKN075 29/19 A2986 RMK AO2 T02880189
KRHP 221915Z AUTO 21005KT 10SM SCT048 SCT075 28/19 A2986 RMK AO2 T02790187
KRHP 221855Z AUTO 28003KT 10SM CLR 28/18 A2987 RMK AO2 T02800178
KRHP 221835Z AUTO 21005KT 10SM SCT049 SCT060 28/19 A2988 RMK AO2 T02810188
KRHP 221815Z AUTO 22006KT 10SM SCT060 28/19 A2988 RMK AO2 T02760187
KRHP 221755Z AUTO 19003KT 10SM SCT050 27/18 A2989 RMK AO2 T02730181 10280 20205
KRHP 221735Z AUTO 28006G14KT 10SM SCT050 27/18 A2989 RMK AO2 T02720182
KRHP 221715Z AUTO 25008G14KT 210V270 10SM SCT050 SCT060 27/18 A2990 RMK AO2 T02720181
KRHP 221655Z AUTO 19003KT 10SM CLR 27/19 A2990 RMK AO2 T02680187
KRHP 221635Z AUTO 25006KT 10SM SCT035 SCT042 SCT050 27/19 A2990 RMK AO2 T02650187
KRHP 221615Z AUTO 23006KT 10SM BKN037 OVC048 26/19 A2989 RMK AO2 T02610190
KRHP 221555Z AUTO 24004KT 10SM SCT036 SCT046 BKN060 26/19 A2989 RMK AO2 T02580185
KRHP 221535Z AUTO 23006KT 10SM SCT039 SCT045 26/19 A2989 RMK AO2 T02550190
KRHP 221515Z AUTO 25005KT 10SM SCT038 BKN045 25/19 A2990 RMK AO2 T02520190
KRHP 221455Z AUTO 26004KT 10SM SCT030 SCT037 SCT044 25/19 A2989 RMK AO2 T02460191
KRHP 221435Z AUTO 24006KT 10SM SCT026 BKN032 BKN041 24/19 A2989 RMK AO2 T02440189
KRHP 221415Z AUTO 21005KT 10SM SCT024 BKN033 BKN040 24/19 A2989 RMK AO2 T02430187
KRHP 221355Z AUTO 21003KT 10SM SCT017 SCT040 24/20 A2990 RMK AO2 T02370199
KRHP 221335Z AUTO 25005KT 10SM SCT012 SCT017 SCT025 23/20 A2990 RMK AO2 T02330201
KRHP 221315Z AUTO 26004KT 10SM SCT012 SCT029 22/21 A2990 RMK AO2 T02220210
KRHP 221255Z AUTO 25004KT 10SM SCT007 SCT015 BKN029 22/21 A2990 RMK AO2 T02210207
KRHP 221235Z AUTO 00000KT 10SM SCT005 BKN019 BKN031 22/22 A2989 RMK AO2 T02150215
KRHP 221215Z AUTO 00000KT 10SM SCT005 BKN019 OVC036 21/21 A2989 RMK AO2 T02070207
KRHP 221155Z AUTO 26003KT 10SM SCT003 BKN011 OVC038 21/21 A2989 RMK AO2 70078 T02050205 10207 20195